createdAt,value
2019-06-01T00:02:15.766Z,15.80
2019-06-01T00:04:45.321Z,16.00
2019-06-01T00:07:14.807Z,16.00
2019-06-01T00:09:45.082Z,16.10
2019-06-01T00:12:14.995Z,16.10
2019-06-01T00:14:45.589Z,16.10
2019-06-01T00:17:15.603Z,16.10
2019-06-01T00:19:46.185Z,16.00
2019-06-01T00:22:15.520Z,15.90
2019-06-01T00:24:45.841Z,15.90
2019-06-01T00:27:15.873Z,15.80
2019-06-01T00:29:46.788Z,15.80
2019-06-01T00:32:16.970Z,15.70
2019-06-01T00:34:47.630Z,15.70
2019-06-01T00:37:16.774Z,15.60
2019-06-01T00:39:45.891Z,15.60
2019-06-01T00:42:15.356Z,15.50
2019-06-01T00:44:46.215Z,15.40
2019-06-01T00:47:15.522Z,15.30
2019-06-01T00:49:46.656Z,15.20
2019-06-01T00:52:17.696Z,15.20
2019-06-01T00:54:47.935Z,15.30
2019-06-01T00:57:18.297Z,15.20
2019-06-01T00:59:48.186Z,15.20
2019-06-01T01:02:17.506Z,15.40
2019-06-01T01:04:48.328Z,15.50
2019-06-01T01:07:17.448Z,15.40
2019-06-01T01:09:48.753Z,15.20
2019-06-01T01:12:18.231Z,15.20
2019-06-01T01:14:47.589Z,15.20
2019-06-01T01:17:16.646Z,15.20
2019-06-01T01:19:47.610Z,15.10
2019-06-01T01:22:18.906Z,15.10
2019-06-01T01:24:48.842Z,15.20
2019-06-01T01:27:17.932Z,15.40
2019-06-01T01:29:47.369Z,15.40
2019-06-01T01:32:17.135Z,15.40
2019-06-01T01:34:47.383Z,15.40
2019-06-01T01:37:17.022Z,15.40
2019-06-01T01:39:47.935Z,15.40
2019-06-01T01:42:18.574Z,15.50
2019-06-01T01:44:48.576Z,15.40
2019-06-01T01:47:18.231Z,15.20
2019-06-01T01:49:47.647Z,15.20
2019-06-01T01:52:17.645Z,15.20
2019-06-01T01:54:47.014Z,15.30
2019-06-01T01:57:16.354Z,15.30
2019-06-01T01:59:45.664Z,15.30
2019-06-01T02:02:14.846Z,15.10
2019-06-01T02:04:43.971Z,15.00
2019-06-01T02:07:14.650Z,14.90
2019-06-01T02:09:43.738Z,14.90
2019-06-01T02:12:12.884Z,14.90
2019-06-01T02:14:42.597Z,14.70
2019-06-01T02:17:11.997Z,14.50
2019-06-01T02:19:41.625Z,14.40
2019-06-01T02:22:11.444Z,14.40
2019-06-01T02:24:40.725Z,14.50
2019-06-01T02:27:10.515Z,14.50
2019-06-01T02:29:40.268Z,14.50
2019-06-01T02:32:09.652Z,14.50
2019-06-01T02:34:39.321Z,14.50
2019-06-01T02:37:09.073Z,14.40
2019-06-01T02:39:38.773Z,14.40
2019-06-01T02:42:09.600Z,14.30
2019-06-01T02:44:38.782Z,14.40
2019-06-01T02:47:08.788Z,14.40
2019-06-01T02:49:38.795Z,14.30
2019-06-01T02:52:09.731Z,14.40
2019-06-01T02:54:39.305Z,14.60
2019-06-01T02:57:09.259Z,14.70
2019-06-01T02:59:39.380Z,14.80
2019-06-01T03:02:13.331Z,14.90
2019-06-01T03:04:41.534Z,14.90
2019-06-01T03:07:12.364Z,14.90
2019-06-01T03:09:47.983Z,15.00
2019-06-01T03:12:19.564Z,15.00
2019-06-01T03:14:53.569Z,15.10
2019-06-01T03:17:26.398Z,15.00
2019-06-01T03:19:57.431Z,14.70
2019-06-01T03:22:28.392Z,14.80
2019-06-01T03:25:00.364Z,14.80
2019-06-01T03:27:33.033Z,14.80
2019-06-01T03:30:06.655Z,14.80
2019-06-01T03:32:37.647Z,14.70
2019-06-01T03:35:08.741Z,14.70
2019-06-01T03:37:38.583Z,14.70
2019-06-01T03:40:18.580Z,14.60
2019-06-01T03:42:38.795Z,14.60
2019-06-01T03:45:09.519Z,14.50
2019-06-01T03:47:39.058Z,14.40
2019-06-01T03:50:09.215Z,14.30
2019-06-01T03:52:38.787Z,14.20
2019-06-01T03:55:08.311Z,14.30
2019-06-01T03:57:38.055Z,14.60
2019-06-01T04:00:09.266Z,14.70
2019-06-01T04:02:39.009Z,14.70
2019-06-01T04:05:09.330Z,14.80
2019-06-01T04:07:39.246Z,14.90
2019-06-01T04:10:09.952Z,14.90
2019-06-01T04:12:39.936Z,14.90
2019-06-01T04:15:12.830Z,14.80
2019-06-01T04:17:40.464Z,14.80
2019-06-01T04:20:10.235Z,14.80
2019-06-01T04:22:39.690Z,14.90
2019-06-01T04:25:10.220Z,14.90
2019-06-01T04:27:39.837Z,14.90
2019-06-01T04:30:09.570Z,15.00
2019-06-01T04:32:49.250Z,15.20
2019-06-01T04:35:11.120Z,15.20
2019-06-01T04:37:40.406Z,15.10
2019-06-01T04:40:09.618Z,15.00
2019-06-01T04:42:38.741Z,14.90
2019-06-01T04:45:09.144Z,14.90
2019-06-01T04:47:39.566Z,15.10
2019-06-01T04:50:10.976Z,15.30
2019-06-01T04:52:41.000Z,15.20
2019-06-01T04:55:11.103Z,15.10
2019-06-01T04:57:41.182Z,15.10
2019-06-01T05:00:25.113Z,15.20
2019-06-01T05:02:42.084Z,15.30
2019-06-01T05:05:11.629Z,15.40
2019-06-01T05:07:41.478Z,15.40
2019-06-01T05:10:11.600Z,15.30
2019-06-01T05:12:41.208Z,15.40
2019-06-01T05:15:11.905Z,15.50
2019-06-01T05:17:48.458Z,15.40
2019-06-01T05:20:17.723Z,15.50
2019-06-01T05:22:47.392Z,15.60
2019-06-01T05:25:17.182Z,15.60
2019-06-01T05:27:52.612Z,15.70
2019-06-01T05:31:04.083Z,15.70
2019-06-01T05:33:37.290Z,15.70
2019-06-01T05:36:04.318Z,15.80
2019-06-01T05:38:33.943Z,15.80
2019-06-01T05:41:03.637Z,15.90
2019-06-01T05:43:33.004Z,15.90
2019-06-01T05:46:02.371Z,16.10
2019-06-01T05:48:32.449Z,16.10
2019-06-01T05:51:01.580Z,16.20
2019-06-01T05:53:30.922Z,16.20
2019-06-01T05:56:01.057Z,16.40
2019-06-01T05:58:31.275Z,16.60
2019-06-01T06:01:00.585Z,16.70
2019-06-01T06:03:39.865Z,16.80
2019-06-01T06:06:01.103Z,16.70
2019-06-01T06:08:30.425Z,16.90
2019-06-01T06:10:59.813Z,16.90
2019-06-01T06:13:29.504Z,16.90
2019-06-01T06:17:12.854Z,16.90
2019-06-01T06:20:07.692Z,17.20
2019-06-01T06:23:05.713Z,17.50
2019-06-01T06:25:49.651Z,17.60
2019-06-01T06:28:19.005Z,17.70
2019-06-01T06:30:48.065Z,17.90
2019-06-01T06:33:17.428Z,17.90
2019-06-01T06:35:47.168Z,17.90
2019-06-01T06:38:17.704Z,18.00
2019-06-01T06:40:48.205Z,18.20
2019-06-01T06:43:20.075Z,18.20
2019-06-01T06:45:45.976Z,18.10
2019-06-01T06:48:14.979Z,18.10
2019-06-01T06:50:43.345Z,18.10
2019-06-01T06:53:24.455Z,18.20
2019-06-01T06:55:41.866Z,18.40
2019-06-01T06:58:09.951Z,18.60
2019-06-01T07:00:38.060Z,18.60
2019-06-01T07:03:06.375Z,18.70
2019-06-01T07:05:34.735Z,18.70
2019-06-01T07:08:03.196Z,18.80
2019-06-01T07:10:31.233Z,18.90
2019-06-01T07:12:59.586Z,18.90
2019-06-01T07:15:28.377Z,19.00
2019-06-01T07:17:56.496Z,19.20
2019-06-01T07:20:25.698Z,19.40
2019-06-01T07:22:54.290Z,19.50
2019-06-01T07:25:23.210Z,19.60
2019-06-01T07:27:51.701Z,19.80
2019-06-01T07:30:20.061Z,19.80
2019-06-01T07:32:48.246Z,19.70
2019-06-01T07:35:16.665Z,19.80
2019-06-01T07:37:44.956Z,20.00
2019-06-01T07:40:14.089Z,20.10
2019-06-01T07:42:42.710Z,20.20
2019-06-01T07:45:11.080Z,20.30
2019-06-01T07:47:39.517Z,20.50
2019-06-01T07:50:07.613Z,20.70
2019-06-01T07:52:35.848Z,20.80
2019-06-01T07:55:13.246Z,20.80
2019-06-01T07:57:43.494Z,20.80
2019-06-01T08:00:11.730Z,21.10
2019-06-01T08:02:50.366Z,21.30
2019-06-01T08:05:18.498Z,21.00
2019-06-01T08:07:46.819Z,21.10
2019-06-01T08:10:14.886Z,21.20
2019-06-01T08:12:43.257Z,21.50
2019-06-01T08:15:11.321Z,21.60
2019-06-01T08:17:39.895Z,21.70
2019-06-01T08:20:08.061Z,21.90
2019-06-01T08:22:36.441Z,22.10
2019-06-01T08:25:04.773Z,22.30
2019-06-01T08:27:33.487Z,22.70
2019-06-01T08:30:02.090Z,23.20
2019-06-01T08:32:32.908Z,23.40
2019-06-01T08:35:08.676Z,23.40
2019-06-01T08:37:33.630Z,24.10
2019-06-01T08:40:01.874Z,25.10
2019-06-01T08:42:31.360Z,26.20
2019-06-01T08:44:59.942Z,27.00
2019-06-01T08:47:29.882Z,27.40
2019-06-01T08:49:58.302Z,27.70
2019-06-01T08:52:28.004Z,27.40
2019-06-01T08:54:57.732Z,27.10
2019-06-01T08:57:26.507Z,26.80
2019-06-01T08:59:54.605Z,26.90
2019-06-01T09:02:24.542Z,27.00
2019-06-01T09:04:53.104Z,27.40
2019-06-01T09:07:21.746Z,28.20
2019-06-01T09:09:49.752Z,28.20
2019-06-01T09:12:17.893Z,28.30
2019-06-01T09:14:46.351Z,29.50
2019-06-01T09:17:18.563Z,29.60
2019-06-01T09:19:44.878Z,31.60
2019-06-01T09:22:13.210Z,32.60
2019-06-01T09:24:41.564Z,33.90
2019-06-01T09:27:09.631Z,32.60
2019-06-01T09:29:38.048Z,31.90
2019-06-01T09:32:10.903Z,31.50
2019-06-01T09:34:36.837Z,32.50
2019-06-01T09:37:08.205Z,32.20
2019-06-01T09:39:37.308Z,32.60
2019-06-01T09:42:05.900Z,34.10
2019-06-01T09:44:35.242Z,34.90
2019-06-01T09:47:03.473Z,35.30
2019-06-01T09:49:32.612Z,35.20
2019-06-01T09:52:02.666Z,36.80
2019-06-01T09:54:32.725Z,35.90
2019-06-01T09:57:01.114Z,36.80
2019-06-01T09:59:30.040Z,37.00
2019-06-01T10:01:58.641Z,37.40
2019-06-01T10:04:28.177Z,37.40
2019-06-01T10:06:56.609Z,38.00
2019-06-01T10:09:25.526Z,38.10
2019-06-01T10:11:56.655Z,39.20
2019-06-01T10:14:24.982Z,38.50
2019-06-01T10:16:53.269Z,37.20
2019-06-01T10:19:24.394Z,38.30
2019-06-01T10:21:54.492Z,38.20
2019-06-01T10:24:31.085Z,39.20
2019-06-01T10:26:59.322Z,39.50
2019-06-01T10:29:34.968Z,38.40
2019-06-01T10:32:03.051Z,36.60
2019-06-01T10:34:35.827Z,33.60
2019-06-01T10:37:07.221Z,32.00
2019-06-01T10:39:37.516Z,30.80
2019-06-01T10:42:07.079Z,28.90
2019-06-01T10:44:41.779Z,27.50
2019-06-01T10:47:07.903Z,26.70
2019-06-01T10:49:38.018Z,26.00
2019-06-01T10:52:07.665Z,25.60
2019-06-01T10:54:38.297Z,25.40
2019-06-01T10:57:08.019Z,25.40
2019-06-01T10:59:38.421Z,25.40
2019-06-01T11:02:08.387Z,25.20
2019-06-01T11:04:38.934Z,25.00
2019-06-01T11:07:08.404Z,25.10
2019-06-01T11:09:37.617Z,25.20
2019-06-01T11:12:11.863Z,25.00
2019-06-01T11:14:41.359Z,24.90
2019-06-01T11:17:10.669Z,24.60
2019-06-01T11:19:39.778Z,24.60
2019-06-01T11:22:09.698Z,24.60
2019-06-01T11:24:39.525Z,24.60
2019-06-01T11:27:10.812Z,24.60
2019-06-01T11:30:18.543Z,24.50
2019-06-01T11:32:10.776Z,24.40
2019-06-01T11:34:42.460Z,24.30
2019-06-01T11:37:15.207Z,24.30
2019-06-01T11:39:44.691Z,24.40
2019-06-01T11:42:13.950Z,24.20
2019-06-01T11:44:44.913Z,24.20
2019-06-01T11:47:14.561Z,24.20
2019-06-01T11:49:45.043Z,24.30
2019-06-01T11:52:14.970Z,24.30
2019-06-01T11:54:45.433Z,24.20
2019-06-01T11:57:15.299Z,24.10
2019-06-01T11:59:45.709Z,24.20
2019-06-01T12:02:17.618Z,24.30
2019-06-01T12:04:47.955Z,24.30
2019-06-01T12:07:18.387Z,24.20
2019-06-01T12:09:47.789Z,24.10
2019-06-01T12:12:16.498Z,24.20
2019-06-01T12:14:48.539Z,24.10
2019-06-01T12:17:17.684Z,24.00
2019-06-01T12:19:47.159Z,23.90
2019-06-01T12:22:16.934Z,24.00
2019-06-01T12:24:47.496Z,23.90
2019-06-01T12:27:16.747Z,23.90
2019-06-01T12:29:45.949Z,23.90
2019-06-01T12:32:14.907Z,23.80
2019-06-01T12:34:44.487Z,23.70
2019-06-01T12:37:14.296Z,23.70
2019-06-01T12:39:44.404Z,23.70
2019-06-01T12:42:14.427Z,23.60
2019-06-01T12:44:43.959Z,23.60
2019-06-01T12:47:13.651Z,23.60
2019-06-01T12:49:44.078Z,23.60
2019-06-01T12:52:13.247Z,23.80
2019-06-01T12:54:42.947Z,23.80
2019-06-01T12:57:12.187Z,23.80
2019-06-01T12:59:43.163Z,23.90
2019-06-01T13:02:12.703Z,23.80
2019-06-01T13:04:42.823Z,23.80
2019-06-01T13:07:12.487Z,23.90
2019-06-01T13:09:43.787Z,23.90
2019-06-01T13:12:13.883Z,23.80
2019-06-01T13:14:45.097Z,23.80
2019-06-01T13:17:20.606Z,23.70
2019-06-01T13:19:55.864Z,23.80
2019-06-01T13:22:25.955Z,23.70
2019-06-01T13:24:55.505Z,23.80
2019-06-01T13:27:27.071Z,23.90
2019-06-01T13:29:57.020Z,24.00
2019-06-01T13:32:26.672Z,24.10
2019-06-01T13:34:55.760Z,23.90
2019-06-01T13:37:25.160Z,23.80
2019-06-01T13:39:58.069Z,23.70
2019-06-01T13:42:26.156Z,23.80
2019-06-01T13:44:55.619Z,23.90
2019-06-01T13:47:26.066Z,23.90
2019-06-01T13:49:55.252Z,23.90
2019-06-01T13:52:25.866Z,23.90
2019-06-01T13:54:55.587Z,23.90
2019-06-01T13:57:25.035Z,23.80
2019-06-01T13:59:55.054Z,24.00
2019-06-01T14:02:28.109Z,23.90
2019-06-01T14:04:57.635Z,23.90
2019-06-01T14:07:27.006Z,24.10
2019-06-01T14:09:56.762Z,24.00
2019-06-01T14:12:26.483Z,24.00
2019-06-01T14:14:55.817Z,24.00
2019-06-01T14:17:25.743Z,24.10
2019-06-01T14:19:55.918Z,24.10
2019-06-01T14:22:25.119Z,24.00
2019-06-01T14:25:10.392Z,24.00
2019-06-01T14:27:26.167Z,23.90
2019-06-01T14:29:56.501Z,23.90
2019-06-01T14:32:26.070Z,23.90
2019-06-01T14:34:56.982Z,23.90
2019-06-01T14:37:26.199Z,24.00
2019-06-01T14:39:55.254Z,24.00
2019-06-01T14:42:24.605Z,23.90
2019-06-01T14:44:58.194Z,24.10
2019-06-01T14:47:29.237Z,24.10
2019-06-01T14:49:58.436Z,24.10
2019-06-01T14:52:28.202Z,24.10
2019-06-01T14:54:58.063Z,24.00
2019-06-01T14:57:27.479Z,24.10
2019-06-01T14:59:58.204Z,24.20
2019-06-01T15:02:28.057Z,24.10
2019-06-01T15:04:58.703Z,24.10
2019-06-01T15:07:28.472Z,24.00
2019-06-01T15:09:58.454Z,23.90
2019-06-01T15:12:28.094Z,23.90
2019-06-01T15:14:57.611Z,23.90
2019-06-01T15:17:27.487Z,24.00
2019-06-01T15:19:58.866Z,24.00
2019-06-01T15:22:28.757Z,24.00
2019-06-01T15:24:58.476Z,24.00
2019-06-01T15:27:28.043Z,23.90
2019-06-01T15:29:58.884Z,23.90
2019-06-01T15:32:28.788Z,23.90
2019-06-01T15:34:59.892Z,23.80
2019-06-01T15:37:29.167Z,23.80
2019-06-01T15:39:58.878Z,23.90
2019-06-01T15:42:28.369Z,23.90
2019-06-01T15:44:59.205Z,23.90
2019-06-01T15:47:29.127Z,23.80
2019-06-01T15:49:59.898Z,23.90
2019-06-01T15:52:29.693Z,23.90
2019-06-01T15:55:00.438Z,23.90
2019-06-01T15:57:30.631Z,24.00
2019-06-01T16:00:00.687Z,24.00
2019-06-01T16:02:30.917Z,24.00
2019-06-01T16:05:01.303Z,23.90
2019-06-01T16:07:31.208Z,23.90
2019-06-01T16:10:05.283Z,23.80
2019-06-01T16:12:31.597Z,23.80
2019-06-01T16:15:02.122Z,23.80
2019-06-01T16:17:31.203Z,23.90
2019-06-01T16:20:02.177Z,23.80
2019-06-01T16:22:32.190Z,23.80
2019-06-01T16:25:02.563Z,23.90
2019-06-01T16:27:31.833Z,23.80
2019-06-01T16:30:03.836Z,23.90
2019-06-01T16:32:32.954Z,23.80
2019-06-01T16:35:03.066Z,23.80
2019-06-01T16:37:41.869Z,23.90
2019-06-01T16:40:11.139Z,24.00
2019-06-01T16:42:40.254Z,23.90
2019-06-01T16:45:10.944Z,23.90
2019-06-01T16:47:41.109Z,23.90
2019-06-01T16:50:11.014Z,23.90
2019-06-01T16:52:40.680Z,24.00
2019-06-01T16:55:11.386Z,24.10
2019-06-01T16:57:41.702Z,24.00
2019-06-01T17:00:10.442Z,24.00
2019-06-01T17:02:39.025Z,24.00
2019-06-01T17:05:07.557Z,23.90
2019-06-01T17:07:37.217Z,23.90
2019-06-01T17:10:21.653Z,23.80
2019-06-01T17:12:42.081Z,23.80
2019-06-01T17:15:08.629Z,23.70
2019-06-01T17:17:38.021Z,23.80
2019-06-01T17:20:09.906Z,23.80
2019-06-01T17:22:39.416Z,23.80
2019-06-01T17:25:08.977Z,23.80
2019-06-01T17:27:38.461Z,23.80
2019-06-01T17:30:11.500Z,23.70
2019-06-01T17:32:39.419Z,23.70
2019-06-01T17:35:09.141Z,23.60
2019-06-01T17:37:38.610Z,23.60
2019-06-01T17:40:08.502Z,23.60
2019-06-01T17:42:38.410Z,23.60
2019-06-01T17:45:09.476Z,23.70
2019-06-01T17:47:40.904Z,23.70
2019-06-01T17:50:11.794Z,23.70
2019-06-01T17:52:41.289Z,23.60
2019-06-01T17:55:13.211Z,23.60
2019-06-01T17:57:43.998Z,23.50
2019-06-01T18:00:17.126Z,23.40
2019-06-01T18:02:47.132Z,23.40
2019-06-01T18:05:18.830Z,23.40
2019-06-01T18:07:48.553Z,23.40
2019-06-01T18:10:18.545Z,23.30
2019-06-01T18:12:49.081Z,23.20
2019-06-01T18:15:18.935Z,23.20
2019-06-01T18:17:48.925Z,23.20
2019-06-01T18:20:20.398Z,23.10
2019-06-01T18:22:49.721Z,23.10
2019-06-01T18:25:27.353Z,23.10
2019-06-01T18:27:56.639Z,23.10
2019-06-01T18:30:26.652Z,23.00
2019-06-01T18:32:57.604Z,22.90
2019-06-01T18:35:28.189Z,22.80
2019-06-01T18:37:58.430Z,22.70
2019-06-01T18:40:27.623Z,22.60
2019-06-01T18:43:00.141Z,22.60
2019-06-01T18:45:29.671Z,22.60
2019-06-01T18:47:59.448Z,22.60
2019-06-01T18:50:28.643Z,22.50
2019-06-01T18:52:57.751Z,22.60
2019-06-01T18:55:27.791Z,22.60
2019-06-01T18:57:59.548Z,22.50
2019-06-01T19:00:29.126Z,22.40
2019-06-01T19:02:59.032Z,22.30
2019-06-01T19:05:28.735Z,22.20
2019-06-01T19:07:58.228Z,22.20
2019-06-01T19:10:27.619Z,22.20
2019-06-01T19:12:56.826Z,22.20
2019-06-01T19:15:28.886Z,22.10
2019-06-01T19:17:57.786Z,22.00
2019-06-01T19:20:27.201Z,22.00
2019-06-01T19:22:56.678Z,21.90
2019-06-01T19:25:26.104Z,21.80
2019-06-01T19:27:57.825Z,21.70
2019-06-01T19:30:43.068Z,21.60
2019-06-01T19:33:15.360Z,21.60
2019-06-01T19:35:43.074Z,21.50
2019-06-01T19:38:13.421Z,21.40
2019-06-01T19:40:43.265Z,21.40
2019-06-01T19:43:13.444Z,21.40
2019-06-01T19:45:43.215Z,21.30
2019-06-01T19:48:12.732Z,21.30
2019-06-01T19:50:42.505Z,21.20
2019-06-01T19:53:12.748Z,21.20
2019-06-01T19:55:42.190Z,21.10
2019-06-01T19:58:12.153Z,21.00
2019-06-01T20:00:41.720Z,21.00
2019-06-01T20:03:12.282Z,20.90
2019-06-01T20:05:41.999Z,20.90
2019-06-01T20:08:12.676Z,20.90
2019-06-01T20:10:43.150Z,20.80
2019-06-01T20:13:13.078Z,20.80
2019-06-01T20:15:42.549Z,20.80
2019-06-01T20:18:12.819Z,20.80
2019-06-01T20:20:42.383Z,20.70
2019-06-01T20:23:13.053Z,20.70
2019-06-01T20:25:43.487Z,20.60
2019-06-01T20:28:14.087Z,20.60
2019-06-01T20:30:44.745Z,20.60
2019-06-01T20:33:14.213Z,20.50
2019-06-01T20:35:44.173Z,20.50
2019-06-01T20:38:14.336Z,20.50
2019-06-01T20:40:44.496Z,20.40
2019-06-01T20:43:14.685Z,20.50
2019-06-01T20:45:44.643Z,20.40
2019-06-01T20:48:15.113Z,20.40
2019-06-01T20:50:44.795Z,20.30
2019-06-01T20:53:14.888Z,20.20
2019-06-01T20:55:45.115Z,20.20
2019-06-01T20:58:16.205Z,20.10
2019-06-01T21:00:46.019Z,20.10
2019-06-01T21:03:15.643Z,20.00
2019-06-01T21:05:45.184Z,20.00
2019-06-01T21:08:15.949Z,20.00
2019-06-01T21:10:45.605Z,20.00
2019-06-01T21:13:15.971Z,19.90
2019-06-01T21:15:45.278Z,19.90
2019-06-01T21:18:16.164Z,19.90
2019-06-01T21:20:46.025Z,19.90
2019-06-01T21:23:16.510Z,19.90
2019-06-01T21:25:46.301Z,19.90
2019-06-01T21:28:17.987Z,19.80
2019-06-01T21:30:47.151Z,19.90
2019-06-01T21:33:17.036Z,19.80
2019-06-01T21:35:46.162Z,19.80
2019-06-01T21:38:15.656Z,19.80
2019-06-01T21:40:44.819Z,19.80
2019-06-01T21:43:26.025Z,19.80
2019-06-01T21:45:45.805Z,19.80
2019-06-01T21:48:15.587Z,19.70
2019-06-01T21:50:45.126Z,19.70
2019-06-01T21:53:15.962Z,19.60
2019-06-01T21:55:45.954Z,19.50
2019-06-01T21:58:18.814Z,19.50
2019-06-01T22:00:50.000Z,19.50
2019-06-01T22:03:19.190Z,19.50
2019-06-01T22:05:48.960Z,19.50
2019-06-01T22:08:19.127Z,19.50
2019-06-01T22:10:48.362Z,19.40
2019-06-01T22:13:20.878Z,19.40
2019-06-01T22:15:49.086Z,19.30
2019-06-01T22:18:19.577Z,19.30
2019-06-01T22:20:50.909Z,19.30
2019-06-01T22:23:21.794Z,19.30
2019-06-01T22:25:51.472Z,19.30
2019-06-01T22:28:22.175Z,19.20
2019-06-01T22:30:51.380Z,19.10
2019-06-01T22:33:22.655Z,19.10
2019-06-01T22:35:52.353Z,19.10
2019-06-01T22:38:22.043Z,19.10
2019-06-01T22:40:51.517Z,19.00
2019-06-01T22:43:37.112Z,19.00
2019-06-01T22:45:53.222Z,18.90
2019-06-01T22:48:22.604Z,18.90
2019-06-01T22:50:51.694Z,18.90
2019-06-01T22:53:21.916Z,18.80
2019-06-01T22:55:51.426Z,18.80
2019-06-01T22:58:21.318Z,18.80
2019-06-01T23:00:50.930Z,18.80
2019-06-01T23:03:21.759Z,18.80
2019-06-01T23:05:51.415Z,18.80
2019-06-01T23:08:24.067Z,18.80
2019-06-01T23:10:56.045Z,18.80
2019-06-01T23:13:26.205Z,18.70
2019-06-01T23:15:55.943Z,18.70
2019-06-01T23:18:25.686Z,18.70
2019-06-01T23:20:55.409Z,18.70
2019-06-01T23:23:26.055Z,18.60
2019-06-01T23:25:55.210Z,18.60
2019-06-01T23:28:24.522Z,18.60
2019-06-01T23:30:54.491Z,18.60
2019-06-01T23:33:24.737Z,18.50
2019-06-01T23:35:55.089Z,18.60
2019-06-01T23:38:24.541Z,18.50
2019-06-01T23:40:53.994Z,18.50
2019-06-01T23:43:24.364Z,18.40
2019-06-01T23:45:54.182Z,18.50
2019-06-01T23:48:25.033Z,18.40
2019-06-01T23:50:54.534Z,18.40
2019-06-01T23:53:23.615Z,18.40
2019-06-01T23:55:52.655Z,18.40
2019-06-01T23:58:22.429Z,18.40
